Terminal Aerodrome Forecast
Issued by NWS Charleston, WV

Current Version | Previous Version | Graphics & Text | Print | Product List | Glossary On
Versions: 1 2 3 4 5 6 7 8 9 10 11 12 13 14 15 16 17 18 19 20 21 22 23 24 25
199
FTUS41 KRLX 200318 AAA
TAFBKW
TAF AMD
KBKW 200318Z 2003/2024 14007KT P6SM SCT025 BKN120
      TEMPO 2008/2009 4SM -RA OVC040
     FM200900 15007KT 4SM -RA SCT025 OVC040
     FM201100 16008KT 4SM -RA OVC015
     FM201300 18007KT P6SM OVC015
     FM201900 23007KT P6SM BKN025
     FM202200 22006KT P6SM SCT250=

USA.gov is the U.S. government's official web portal to all federal, state and local government web resources and services.